Time;durP1;ratioP1;P1;durP2;ratioP2;P2;SDS_P1;SDS_P2;PMS_P1;PMS_P2;Temp;Humidity;BMP_temperature;BMP_pressure;BME280_temperature;BME280_humidity;BME280_pressure;Samples;Min_cycle;Max_cycle;Signal;HPM_P1;HPM_P2
2021/09/09 00:00:44;;;;;;;38.72;34.65;;;13.30;99.90;;;;;;5131102;27;20380;-81
2021/09/09 00:03:10;;;;;;;40.37;36.37;;;13.30;99.90;;;;;;5130878;27;20401;-82
2021/09/09 00:05:35;;;;;;;38.00;34.22;;;13.20;99.90;;;;;;5130951;27;20377;-82
2021/09/09 00:08:01;;;;;;;38.93;35.03;;;13.20;99.90;;;;;;5130839;28;20369;-82
2021/09/09 00:10:27;;;;;;;39.20;35.10;;;13.20;99.90;;;;;;5130989;28;20377;-81
2021/09/09 00:12:53;;;;;;;36.92;33.17;;;13.20;99.90;;;;;;5129681;28;20369;-82
2021/09/09 00:15:18;;;;;;;36.70;33.15;;;13.20;99.90;;;;;;5130828;28;20365;-82
2021/09/09 00:17:44;;;;;;;39.00;35.05;;;13.20;99.90;;;;;;5129823;28;20800;-82
2021/09/09 00:20:11;;;;;;;37.13;33.33;;;13.20;99.90;;;;;;5130933;28;20365;-81
2021/09/09 00:22:38;;;;;;;42.55;38.22;;;13.10;99.90;;;;;;5130922;28;20392;-82
2021/09/09 00:25:04;;;;;;;39.67;35.70;;;13.10;99.90;;;;;;5130613;28;20377;-81
2021/09/09 00:27:30;;;;;;;39.67;35.58;;;13.00;99.90;;;;;;5129604;28;20381;-81
2021/09/09 00:29:55;;;;;;;41.87;37.57;;;13.10;99.90;;;;;;5130841;28;20426;-82
2021/09/09 00:32:21;;;;;;;42.08;37.83;;;13.10;99.90;;;;;;5130717;28;20357;-81
2021/09/09 00:34:47;;;;;;;42.83;38.43;;;13.00;99.90;;;;;;5129358;28;20376;-82
2021/09/09 00:37:12;;;;;;;41.43;37.23;;;13.10;99.90;;;;;;5130706;28;20377;-82
2021/09/09 00:39:38;;;;;;;41.88;36.25;;;13.00;99.90;;;;;;5130939;28;20376;-82
2021/09/09 00:42:03;;;;;;;41.53;37.17;;;13.00;99.90;;;;;;5130605;28;20373;-81
2021/09/09 00:44:29;;;;;;;40.30;36.30;;;13.00;99.90;;;;;;5111972;28;20468;-82
2021/09/09 00:47:03;;;;;;;41.97;37.47;;;12.90;99.90;;;;;;5129312;28;20388;-82
2021/09/09 00:49:29;;;;;;;40.10;36.10;;;12.90;99.90;;;;;;5130780;28;20461;-83
2021/09/09 00:51:55;;;;;;;43.25;38.72;;;12.90;99.90;;;;;;5112043;28;20377;-83
2021/09/09 00:54:21;;;;;;;40.88;36.63;;;12.90;99.90;;;;;;5130536;28;20373;-82
2021/09/09 00:56:48;;;;;;;38.53;34.60;;;12.80;99.90;;;;;;5130469;28;20731;-82
2021/09/09 00:59:14;;;;;;;37.63;33.83;;;12.80;99.90;;;;;;5129105;28;20408;-82
2021/09/09 01:01:41;;;;;;;35.10;31.70;;;12.80;99.90;;;;;;5130566;28;20461;-83
2021/09/09 01:04:06;;;;;;;38.88;34.92;;;12.70;99.90;;;;;;5130297;28;20496;-82
2021/09/09 01:06:32;;;;;;;38.08;34.28;;;12.80;99.90;;;;;;5130426;28;20456;-82
2021/09/09 01:08:58;;;;;;;41.00;36.53;;;12.60;99.90;;;;;;5130209;28;20393;-82
2021/09/09 01:11:23;;;;;;;41.83;37.37;;;12.60;99.90;;;;;;5130480;28;20373;-82
2021/09/09 01:13:50;;;;;;;37.00;33.27;;;12.60;99.90;;;;;;5129085;28;20380;-81
2021/09/09 01:16:16;;;;;;;41.13;36.92;;;12.50;99.90;;;;;;5130485;28;20369;-82
2021/09/09 01:18:41;;;;;;;35.67;32.05;;;12.50;99.90;;;;;;5131653;27;20369;-81
2021/09/09 01:21:07;;;;;;;38.03;34.03;;;12.50;99.90;;;;;;5133980;27;20400;-81
2021/09/09 01:23:34;;;;;;;36.47;32.67;;;12.50;99.90;;;;;;5133851;27;20388;-82
2021/09/09 01:25:59;;;;;;;40.17;36.03;;;12.40;99.90;;;;;;5132461;27;20373;-82
2021/09/09 01:28:25;;;;;;;39.80;35.80;;;12.40;99.90;;;;;;5133983;27;20716;-82
2021/09/09 01:30:50;;;;;;;39.17;35.00;;;12.40;99.90;;;;;;5132546;27;20369;-81
2021/09/09 01:33:16;;;;;;;37.67;33.80;;;12.40;99.90;;;;;;5133723;27;20461;-82
2021/09/09 01:35:41;;;;;;;40.67;36.45;;;12.40;99.90;;;;;;5132443;27;20377;-82
2021/09/09 01:38:21;;;;;;;37.83;33.93;;;12.30;99.90;;;;;;5132464;27;20401;-82
2021/09/09 01:40:46;;;;;;;36.30;32.70;;;12.30;99.90;;;;;;5133634;27;20370;-80
2021/09/09 01:43:12;;;;;;;37.73;33.77;;;12.30;99.90;;;;;;5133644;27;20381;-81
2021/09/09 01:45:37;;;;;;;38.95;34.85;;;12.30;99.90;;;;;;5133571;27;20373;-81
2021/09/09 01:48:03;;;;;;;37.97;34.10;;;12.20;99.90;;;;;;5133217;27;20419;-82
2021/09/09 01:50:29;;;;;;;35.90;32.30;;;12.20;99.90;;;;;;5133342;27;20373;-81
2021/09/09 01:52:55;;;;;;;38.33;34.40;;;12.20;99.90;;;;;;5133308;27;20403;-82
2021/09/09 01:55:20;;;;;;;40.40;36.17;;;12.20;99.90;;;;;;5133139;27;20368;-82
2021/09/09 01:57:46;;;;;;;41.63;37.43;;;12.20;99.90;;;;;;5132225;27;20913;-82
2021/09/09 02:00:12;;;;;;;39.77;35.67;;;12.10;99.90;;;;;;5133312;27;20372;-83
2021/09/09 02:02:39;;;;;;;37.60;33.83;;;12.20;99.90;;;;;;5133166;27;20494;-81
2021/09/09 02:05:05;;;;;;;36.17;32.67;;;12.10;99.90;;;;;;5133135;27;20387;-82
2021/09/09 02:07:31;;;;;;;37.45;33.63;;;12.10;99.90;;;;;;5133072;27;20368;-81
2021/09/09 02:09:56;;;;;;;38.88;34.88;;;12.20;99.90;;;;;;5132864;27;20369;-82
2021/09/09 02:12:22;;;;;;;38.72;34.75;;;12.10;99.90;;;;;;5131791;27;20723;-82
2021/09/09 02:14:47;;;;;;;38.87;34.97;;;12.10;99.90;;;;;;5132847;27;20484;-83
2021/09/09 02:17:13;;;;;;;37.03;33.15;;;12.00;99.90;;;;;;5132899;27;21220;-82
2021/09/09 02:19:38;;;;;;;38.93;35.03;;;12.10;99.90;;;;;;5132907;27;20365;-83
2021/09/09 02:22:04;;;;;;;37.07;33.37;;;12.00;99.90;;;;;;5131638;27;20729;-82
2021/09/09 02:24:30;;;;;;;39.25;35.05;;;11.90;99.90;;;;;;5132598;27;20393;-82
2021/09/09 02:26:55;;;;;;;38.20;34.47;;;11.90;99.90;;;;;;5131419;27;20424;-83
2021/09/09 02:29:21;;;;;;;38.80;34.87;;;11.90;99.90;;;;;;5132484;27;20469;-82
2021/09/09 02:31:46;;;;;;;36.03;32.33;;;11.90;99.90;;;;;;5132832;27;20378;-81
2021/09/09 02:34:12;;;;;;;36.37;32.87;;;11.90;99.90;;;;;;5131162;27;20874;-84
2021/09/09 02:36:37;;;;;;;36.72;33.17;;;11.80;99.90;;;;;;5132629;27;20922;-82
2021/09/09 02:39:03;;;;;;;35.67;32.03;;;11.80;99.90;;;;;;5132287;27;20862;-84
2021/09/09 02:41:29;;;;;;;36.43;32.53;;;11.80;99.90;;;;;;5132497;27;20405;-82
2021/09/09 02:43:54;;;;;;;37.17;33.30;;;11.70;99.90;;;;;;5132362;27;20412;-82
2021/09/09 02:46:20;;;;;;;34.63;31.07;;;11.60;99.90;;;;;;5130831;27;20910;-81
2021/09/09 02:48:46;;;;;;;35.88;32.38;;;11.60;99.90;;;;;;5131614;27;20373;-79
2021/09/09 02:51:11;;;;;;;35.73;32.03;;;11.60;99.90;;;;;;5132743;27;20369;-83
2021/09/09 02:53:37;;;;;;;34.47;31.15;;;11.60;99.90;;;;;;5114304;27;20373;-82
2021/09/09 02:56:03;;;;;;;38.13;34.17;;;11.60;99.90;;;;;;5132320;27;20882;-83
2021/09/09 02:58:28;;;;;;;39.40;35.23;;;11.60;99.90;;;;;;5130738;27;20409;-82
2021/09/09 03:00:54;;;;;;;38.78;34.80;;;11.60;99.90;;;;;;5132329;27;20373;-84
2021/09/09 03:03:21;;;;;;;37.23;33.37;;;11.60;99.90;;;;;;5130672;27;20400;-82
2021/09/09 03:05:47;;;;;;;37.97;34.13;;;11.60;99.90;;;;;;5130673;27;20426;-82
2021/09/09 03:08:13;;;;;;;37.07;33.20;;;11.60;99.90;;;;;;5130580;27;20763;-84
2021/09/09 03:10:38;;;;;;;39.63;35.53;;;11.50;99.90;;;;;;5130595;27;20388;-83
2021/09/09 03:13:04;;;;;;;35.22;31.65;;;11.60;99.90;;;;;;5131818;27;20798;-85
2021/09/09 03:15:30;;;;;;;38.30;34.28;;;11.50;99.90;;;;;;5131779;27;20369;-84
2021/09/09 03:17:55;;;;;;;36.78;32.97;;;11.50;99.90;;;;;;5131890;27;20370;-84
2021/09/09 03:20:21;;;;;;;37.03;33.27;;;11.50;99.90;;;;;;5132198;27;20855;-86
2021/09/09 03:22:47;;;;;;;39.22;34.95;;;11.50;99.90;;;;;;5131634;27;20979;-82
2021/09/09 03:25:12;;;;;;;38.83;34.80;;;11.50;99.90;;;;;;5134024;27;20385;-83
2021/09/09 03:27:38;;;;;;;34.40;30.90;;;11.40;99.90;;;;;;5135108;27;20434;-82
2021/09/09 03:30:05;;;;;;;40.80;36.50;;;11.40;99.90;;;;;;5136513;27;20381;-81
2021/09/09 03:32:30;;;;;;;37.33;33.42;;;11.30;99.90;;;;;;5119685;27;20376;-83
2021/09/09 03:34:56;;;;;;;36.83;32.97;;;11.30;99.90;;;;;;5135176;27;20890;-82
2021/09/09 03:37:21;;;;;;;39.53;35.47;;;11.30;99.90;;;;;;5134831;27;20434;-83
2021/09/09 03:39:47;;;;;;;38.43;34.50;;;11.30;99.90;;;;;;5137962;27;20921;-81
2021/09/09 03:42:12;;;;;;;36.50;32.70;;;11.30;99.90;;;;;;5136061;27;20747;-85
2021/09/09 03:44:38;;;;;;;36.53;32.90;;;11.20;99.90;;;;;;5138114;27;20385;-84
2021/09/09 03:47:04;;;;;;;35.27;31.87;;;11.20;99.90;;;;;;5140333;27;20442;-81
2021/09/09 03:49:29;;;;;;;35.00;31.42;;;11.20;99.90;;;;;;5139030;27;20388;-82
2021/09/09 03:51:55;;;;;;;39.03;34.60;;;11.20;99.90;;;;;;5139196;27;20369;-82
2021/09/09 03:54:21;;;;;;;38.97;34.77;;;11.10;99.90;;;;;;5138763;27;20368;-82
2021/09/09 03:56:46;;;;;;;37.07;33.37;;;11.10;99.90;;;;;;5141904;27;20785;-81
2021/09/09 03:59:12;;;;;;;37.20;33.38;;;11.00;99.90;;;;;;5142067;27;20368;-82
2021/09/09 04:01:37;;;;;;;37.90;33.93;;;11.00;99.90;;;;;;5142013;27;20867;-81
2021/09/09 04:04:03;;;;;;;36.80;33.10;;;11.00;99.90;;;;;;5140483;28;20492;-82
2021/09/09 04:06:29;;;;;;;39.13;35.03;;;11.00;99.90;;;;;;5140292;28;20438;-81
2021/09/09 04:08:56;;;;;;;42.67;35.63;;;11.00;99.90;;;;;;5139742;28;20380;-81
2021/09/09 04:11:21;;;;;;;46.47;38.17;;;11.00;99.90;;;;;;5139013;28;20381;-82
2021/09/09 04:13:47;;;;;;;39.77;35.77;;;11.00;99.90;;;;;;5138573;28;20380;-81
2021/09/09 04:16:12;;;;;;;40.90;36.60;;;11.00;99.90;;;;;;5139485;28;20396;-81
2021/09/09 04:18:38;;;;;;;41.50;37.00;;;11.00;99.90;;;;;;5138866;28;20437;-81
2021/09/09 04:21:04;;;;;;;45.03;35.77;;;11.00;99.90;;;;;;5137822;28;20399;-83
2021/09/09 04:23:29;;;;;;;52.75;38.05;;;11.00;99.90;;;;;;5139201;28;20408;-81
2021/09/09 04:25:55;;;;;;;58.53;37.05;;;10.90;99.90;;;;;;5137897;28;20412;-82
2021/09/09 04:28:20;;;;;;;46.90;36.70;;;10.90;99.90;;;;;;5137882;28;20384;-83
2021/09/09 04:30:48;;;;;;;37.58;33.38;;;10.90;99.90;;;;;;5137297;28;20449;-86
2021/09/09 04:33:14;;;;;;;40.30;35.22;;;10.90;99.90;;;;;;5135340;27;20452;-84
2021/09/09 04:35:39;;;;;;;43.67;36.27;;;10.90;99.90;;;;;;5135795;28;20377;-83
2021/09/09 04:38:05;;;;;;;44.88;36.20;;;10.90;99.90;;;;;;5134739;28;20373;-85
2021/09/09 04:40:31;;;;;;;42.42;33.65;;;10.90;99.90;;;;;;5133018;28;20369;-84
2021/09/09 04:42:57;;;;;;;39.53;35.38;;;10.90;99.90;;;;;;5133116;28;20381;-83
2021/09/09 04:45:22;;;;;;;36.43;32.53;;;10.90;99.90;;;;;;5133776;28;20863;-85
2021/09/09 04:47:48;;;;;;;35.87;32.03;;;10.90;99.90;;;;;;5131756;28;20392;-83
2021/09/09 04:50:14;;;;;;;33.50;30.00;;;10.90;99.90;;;;;;5131194;28;20460;-85
2021/09/09 04:52:40;;;;;;;32.13;28.85;;;10.90;99.90;;;;;;5126096;27;20386;-84
2021/09/09 04:55:06;;;;;;;35.07;31.40;;;10.90;99.90;;;;;;5112562;28;20424;-85
2021/09/09 04:57:31;;;;;;;45.95;34.53;;;10.90;99.90;;;;;;5095998;28;20884;-82
2021/09/09 04:59:57;;;;;;;46.97;34.93;;;10.90;99.90;;;;;;5097321;28;20367;-85
2021/09/09 05:02:23;;;;;;;41.37;34.87;;;11.00;99.90;;;;;;5096075;28;20367;-84
2021/09/09 05:04:49;;;;;;;35.78;31.55;;;11.00;99.90;;;;;;5114211;28;20371;-86
2021/09/09 05:07:15;;;;;;;35.55;31.73;;;10.90;99.90;;;;;;5114605;28;20733;-86
2021/09/09 05:09:40;;;;;;;37.27;32.40;;;11.00;99.90;;;;;;5095885;28;20470;-86
2021/09/09 05:12:06;;;;;;;38.05;33.78;;;11.10;99.90;;;;;;5095966;28;20367;-83
2021/09/09 05:14:33;;;;;;;39.20;32.20;;;11.10;99.90;;;;;;5114096;28;20859;-87
2021/09/09 05:16:59;;;;;;;41.97;33.27;;;11.10;99.90;;;;;;5114084;28;20378;-86
2021/09/09 05:19:24;;;;;;;47.07;33.57;;;11.10;99.90;;;;;;5096075;28;20423;-87
2021/09/09 05:22:03;;;;;;;39.53;32.53;;;11.20;99.90;;;;;;5115236;28;20453;-85
2021/09/09 05:24:29;;;;;;;36.45;32.55;;;11.30;99.90;;;;;;5111660;28;20416;-83
2021/09/09 05:26:55;;;;;;;37.63;33.13;;;11.40;99.90;;;;;;5113921;28;20454;-83
2021/09/09 05:29:22;;;;;;;43.63;33.47;;;11.50;99.90;;;;;;5096520;28;20371;-85
2021/09/09 05:31:48;;;;;;;57.80;34.47;;;11.50;99.90;;;;;;5098150;28;20389;-83
2021/09/09 05:34:14;;;;;;;60.20;34.88;;;11.60;99.90;;;;;;5097474;28;20367;-83
2021/09/09 05:36:40;;;;;;;39.92;33.58;;;11.70;99.90;;;;;;5117100;28;20371;-82
2021/09/09 05:39:05;;;;;;;51.53;33.50;;;11.80;99.90;;;;;;5120921;28;20840;-83
2021/09/09 05:41:31;;;;;;;60.70;35.43;;;11.90;99.90;;;;;;5116646;28;20420;-85
2021/09/09 05:43:57;;;;;;;39.63;33.13;;;12.10;99.90;;;;;;5113544;28;20812;-83
2021/09/09 05:46:23;;;;;;;36.78;31.02;;;12.20;99.90;;;;;;5112294;28;20382;-83
2021/09/09 05:48:48;;;;;;;39.10;32.50;;;12.30;99.90;;;;;;5112361;28;20397;-83
2021/09/09 05:51:14;;;;;;;37.27;32.57;;;12.40;99.90;;;;;;5093924;28;20394;-83
2021/09/09 05:53:40;;;;;;;40.47;31.20;;;12.50;99.90;;;;;;5111573;28;20722;-83
2021/09/09 05:56:05;;;;;;;35.30;30.13;;;12.70;99.90;;;;;;5112292;28;20423;-83
2021/09/09 05:58:31;;;;;;;37.80;31.57;;;12.80;99.90;;;;;;5093557;28;20363;-84
2021/09/09 06:00:57;;;;;;;38.65;31.58;;;12.90;99.90;;;;;;5093505;28;20954;-82
2021/09/09 06:03:25;;;;;;;40.38;30.42;;;13.00;99.90;;;;;;5093958;28;20709;-83
2021/09/09 06:06:01;;;;;;;33.65;30.10;;;13.20;99.90;;;;;;5112076;28;20777;-82
2021/09/09 06:08:37;;;;;;;31.50;28.25;;;13.30;99.90;;;;;;5110388;28;20509;-84
2021/09/09 06:11:03;;;;;;;29.77;26.77;;;13.50;99.90;;;;;;5093307;28;20892;-83
2021/09/09 06:13:29;;;;;;;28.47;25.63;;;13.60;99.90;;;;;;5092401;28;20382;-84
2021/09/09 06:15:55;;;;;;;42.17;24.77;;;13.80;99.90;;;;;;5091699;28;20370;-84
2021/09/09 06:18:20;;;;;;;31.67;20.77;;;14.00;99.90;;;;;;5110278;28;20370;-84
2021/09/09 06:20:47;;;;;;;21.83;19.53;;;14.20;99.90;;;;;;5111712;28;20371;-83
2021/09/09 06:23:13;;;;;;;22.15;19.75;;;14.30;99.90;;;;;;5093135;28;20395;-84
2021/09/09 06:25:39;;;;;;;22.07;19.87;;;14.50;99.90;;;;;;5112374;28;20899;-83
2021/09/09 06:28:04;;;;;;;54.23;22.10;;;14.70;99.90;;;;;;5090507;28;20858;-83
2021/09/09 06:30:30;;;;;;;25.65;18.98;;;14.80;99.90;;;;;;5092954;28;20390;-83
2021/09/09 06:32:56;;;;;;;29.65;18.63;;;15.00;99.90;;;;;;5092465;28;20416;-83
2021/09/09 06:35:22;;;;;;;22.60;17.63;;;15.20;99.90;;;;;;5092763;28;20383;-81
2021/09/09 06:37:48;;;;;;;32.90;19.88;;;15.40;99.90;;;;;;5111032;28;20367;-81
2021/09/09 06:40:14;;;;;;;24.80;16.42;;;15.60;99.90;;;;;;5093262;28;20436;-83
2021/09/09 06:42:40;;;;;;;19.73;17.75;;;15.80;99.90;;;;;;5110877;28;20375;-81
2021/09/09 06:45:07;;;;;;;20.73;16.92;;;16.00;99.90;;;;;;5092411;28;20366;-82
2021/09/09 06:47:33;;;;;;;108.77;25.53;;;16.30;99.90;;;;;;5111037;28;20456;-83
2021/09/09 06:49:58;;;;;;;69.05;21.52;;;16.60;99.90;;;;;;5093718;28;20922;-83
2021/09/09 06:52:24;;;;;;;87.47;22.23;;;16.90;99.90;;;;;;5093289;28;20367;-81
2021/09/09 06:54:50;;;;;;;116.33;23.30;;;17.10;99.90;;;;;;5093089;28;20730;-82
2021/09/09 06:57:16;;;;;;;20.73;15.93;;;17.40;99.90;;;;;;5091549;28;20397;-83
2021/09/09 06:59:42;;;;;;;18.80;15.17;;;17.50;99.90;;;;;;5109011;28;20832;-82
2021/09/09 07:02:07;;;;;;;16.88;14.90;;;17.70;99.90;;;;;;5111153;28;20470;-82
2021/09/09 07:04:33;;;;;;;16.73;14.43;;;17.90;99.90;;;;;;5092508;28;20562;-81
2021/09/09 07:06:59;;;;;;;18.87;13.90;;;18.10;99.90;;;;;;5111030;28;20371;-83
2021/09/09 07:09:24;;;;;;;15.95;14.27;;;18.30;99.90;;;;;;5108511;28;20854;-82
2021/09/09 07:11:50;;;;;;;17.50;14.57;;;18.50;99.90;;;;;;5111060;28;20378;-82
2021/09/09 07:14:16;;;;;;;16.17;13.70;;;18.80;99.90;;;;;;5111392;28;20478;-83
2021/09/09 07:16:41;;;;;;;29.77;14.07;;;19.00;99.90;;;;;;5109766;28;20891;-83
2021/09/09 07:19:07;;;;;;;32.00;14.27;;;19.20;99.90;;;;;;5110884;28;20812;-82
2021/09/09 07:21:32;;;;;;;84.63;18.27;;;19.30;99.90;;;;;;5111214;28;20374;-84
2021/09/09 07:23:58;;;;;;;26.15;12.27;;;19.40;99.90;;;;;;5093867;28;20395;-84
2021/09/09 07:26:23;;;;;;;14.90;11.70;;;19.50;99.90;;;;;;5112719;28;20524;-85
2021/09/09 07:28:49;;;;;;;14.85;10.55;;;19.60;99.90;;;;;;5111470;28;20379;-83
2021/09/09 07:31:15;;;;;;;12.30;10.43;;;19.70;99.90;;;;;;5111403;28;20367;-85
2021/09/09 07:33:40;;;;;;;12.50;10.13;;;19.90;99.90;;;;;;5111688;28;20388;-86
2021/09/09 07:36:08;;;;;;;13.10;10.40;;;20.00;99.90;;;;;;5111506;28;20440;-84
2021/09/09 07:38:35;;;;;;;43.63;13.77;;;20.20;99.90;;;;;;5093231;28;20382;-86
2021/09/09 07:41:03;;;;;;;21.63;10.70;;;20.30;99.90;;;;;;5110420;28;20416;-84
2021/09/09 07:43:29;;;;;;;14.95;9.93;;;20.50;99.90;;;;;;5091564;28;20398;-84
2021/09/09 07:45:55;;;;;;;34.13;11.90;;;20.70;99.90;;;;;;5091927;28;20429;-84
2021/09/09 07:48:22;;;;;;;15.70;10.03;;;20.80;99.90;;;;;;5110128;28;20395;-85
2021/09/09 07:50:48;;;;;;;14.02;9.85;;;20.90;99.90;;;;;;5110932;28;20411;-84
2021/09/09 07:53:14;;;;;;;12.43;9.75;;;20.90;99.90;;;;;;5110480;28;20405;-84
2021/09/09 07:55:40;;;;;;;14.03;9.67;;;21.00;99.90;;;;;;5092182;28;20408;-85
2021/09/09 07:58:06;;;;;;;14.77;9.10;;;21.10;99.90;;;;;;5110352;28;20427;-85
2021/09/09 08:00:32;;;;;;;12.88;9.50;;;21.20;99.90;;;;;;5111202;28;20374;-84
2021/09/09 08:02:59;;;;;;;65.60;14.02;;;21.20;99.90;;;;;;5092436;28;20833;-86
2021/09/09 08:05:24;;;;;;;14.27;9.43;;;21.30;99.90;;;;;;5110792;28;20378;-83
2021/09/09 08:07:50;;;;;;;36.03;11.18;;;21.30;99.90;;;;;;5110197;28;20378;-85
2021/09/09 08:10:17;;;;;;;11.00;8.90;;;21.30;99.90;;;;;;5110720;28;20402;-86
2021/09/09 08:12:44;;;;;;;14.80;9.45;;;21.40;99.90;;;;;;5110257;28;20414;-83
2021/09/09 08:15:10;;;;;;;13.30;9.20;;;21.50;99.90;;;;;;5110557;28;20470;-84
2021/09/09 08:17:36;;;;;;;14.05;9.75;;;21.60;99.90;;;;;;5110383;28;20375;-83
2021/09/09 08:20:03;;;;;;;20.13;9.95;;;21.60;99.90;;;;;;5092224;28;20382;-85
2021/09/09 08:22:29;;;;;;;18.80;9.47;;;21.70;99.90;;;;;;5091413;28;20374;-85
2021/09/09 08:24:55;;;;;;;23.33;8.65;;;21.80;99.90;;;;;;5091531;28;20459;-83
2021/09/09 08:27:21;;;;;;;11.77;9.70;;;21.80;99.90;;;;;;5111443;28;21124;-84
2021/09/09 08:29:47;;;;;;;33.75;11.50;;;21.90;99.90;;;;;;5111881;28;20867;-84
2021/09/09 08:32:13;;;;;;;10.70;9.60;;;22.00;99.90;;;;;;5114047;28;20548;-85
2021/09/09 08:34:38;;;;;;;11.68;9.10;;;21.90;99.90;;;;;;5114307;28;20378;-83
2021/09/09 08:37:04;;;;;;;11.97;8.83;;;21.90;99.90;;;;;;5115350;28;20432;-85
2021/09/09 08:39:29;;;;;;;14.07;9.45;;;22.00;99.90;;;;;;5095627;28;20383;-84
2021/09/09 08:41:55;;;;;;;12.77;8.20;;;22.00;99.90;;;;;;5114158;28;20377;-84
2021/09/09 08:44:22;;;;;;;13.95;8.48;;;22.20;99.90;;;;;;5114260;28;20404;-84
2021/09/09 08:46:49;;;;;;;11.68;8.95;;;22.30;99.90;;;;;;5114060;28;20371;-85
2021/09/09 08:49:15;;;;;;;10.65;8.32;;;22.40;99.90;;;;;;5094784;28;20371;-83
2021/09/09 08:51:41;;;;;;;10.40;8.00;;;22.60;99.90;;;;;;5113530;28;20373;-83
2021/09/09 08:54:07;;;;;;;23.90;9.30;;;22.70;99.90;;;;;;5111072;28;20371;-84
2021/09/09 08:56:33;;;;;;;11.15;8.38;;;22.90;99.90;;;;;;5095194;27;20442;-84
2021/09/09 08:58:58;;;;;;;9.40;8.27;;;23.00;99.90;;;;;;5114079;27;20370;-86
2021/09/09 09:01:26;;;;;;;12.73;8.52;;;23.10;99.90;;;;;;5098392;28;20401;-85
2021/09/09 09:03:54;;;;;;;11.93;8.40;;;23.20;99.90;;;;;;5113688;28;20466;-88
2021/09/09 09:06:26;;;;;;;11.60;8.80;;;23.20;99.90;;;;;;5115814;27;20370;-87
2021/09/09 09:08:58;;;;;;;10.50;8.52;;;22.90;99.90;;;;;;5112607;28;20371;-83
2021/09/09 09:11:35;;;;;;;11.10;8.20;;;22.90;99.90;;;;;;5112633;28;20402;-86
2021/09/09 09:14:02;;;;;;;10.63;8.18;;;22.80;99.90;;;;;;5092149;28;20395;-85
2021/09/09 09:16:29;;;;;;;11.30;8.48;;;22.80;99.90;;;;;;5111078;28;20383;-83
2021/09/09 09:18:58;;;;;;;10.37;8.43;;;22.80;99.90;;;;;;5115418;27;20894;-87
2021/09/09 09:21:26;;;;;;;10.77;8.27;;;23.00;99.90;;;;;;5111349;28;20418;-85
2021/09/09 09:23:55;;;;;;;9.55;8.15;;;23.00;99.90;;;;;;5114261;28;20402;-83
2021/09/09 09:26:21;;;;;;;10.32;7.75;;;23.20;99.90;;;;;;5113612;28;20936;-83
2021/09/09 09:28:53;;;;;;;10.68;7.60;;;23.40;99.90;;;;;;5115766;27;20450;-81
2021/09/09 09:31:23;;;;;;;11.75;7.55;;;23.40;99.90;;;;;;5094735;28;20382;-86
2021/09/09 09:33:57;;;;;;;15.73;7.85;;;23.60;99.90;;;;;;5093938;28;20489;-85
2021/09/09 09:36:24;;;;;;;9.50;7.55;;;23.70;99.90;;;;;;5095129;28;20407;-85
2021/09/09 09:39:07;;;;;;;17.58;8.15;;;23.80;99.90;;;;;;5094701;28;20367;-87
2021/09/09 09:41:34;;;;;;;11.32;8.38;;;23.90;99.90;;;;;;5112202;28;20473;-85
2021/09/09 09:44:03;;;;;;;13.52;8.23;;;24.00;99.90;;;;;;5093569;28;20414;-82
2021/09/09 09:46:39;;;;;;;12.57;7.47;;;24.00;99.90;;;;;;5091347;28;20379;-81
2021/09/09 09:49:20;;;;;;;10.83;8.30;;;24.00;99.90;;;;;;5113503;28;20378;-84
2021/09/09 09:51:48;;;;;;;11.10;7.78;;;24.20;99.90;;;;;;5094156;28;20367;-84
2021/09/09 09:54:15;;;;;;;10.38;8.00;;;24.40;99.90;;;;;;5111961;28;20853;-85
2021/09/09 09:56:42;;;;;;;14.52;8.63;;;24.30;99.90;;;;;;5096160;28;20463;-84
2021/09/09 09:59:08;;;;;;;13.23;8.20;;;24.20;99.90;;;;;;5094127;28;20389;-84
2021/09/09 10:01:37;;;;;;;10.67;7.47;;;24.30;99.90;;;;;;5112632;28;20371;-84
2021/09/09 10:04:14;;;;;;;12.57;8.25;;;24.40;99.90;;;;;;5093968;28;20387;-83
2021/09/09 10:06:42;;;;;;;10.05;7.97;;;24.50;99.90;;;;;;5107498;28;20382;-83
2021/09/09 10:09:08;;;;;;;11.93;7.55;;;24.60;99.90;;;;;;5111850;28;20926;-84
2021/09/09 10:11:34;;;;;;;8.87;7.60;;;24.60;99.90;;;;;;5122521;28;20381;-85
2021/09/09 10:14:02;;;;;;;12.27;7.85;;;24.60;99.90;;;;;;5104928;28;20385;-83
2021/09/09 10:16:31;;;;;;;11.82;7.50;;;24.50;99.90;;;;;;5116507;28;20465;-82
2021/09/09 10:18:58;;;;;;;25.63;9.27;;;24.60;99.90;;;;;;5100647;28;20467;-85
2021/09/09 10:22:03;;;;;;;15.93;8.85;;;24.80;99.90;;;;;;5122142;28;20350;-82
2021/09/09 10:24:31;;;;;;;8.82;7.30;;;24.90;99.90;;;;;;5062967;28;20409;-86
2021/09/09 10:27:17;;;;;;;9.48;7.47;;;25.00;99.90;;;;;;5094229;28;20401;-87
2021/09/09 10:29:43;;;;;;;19.65;8.30;;;25.10;99.90;;;;;;5092978;28;20383;-83
2021/09/09 10:32:32;;;;;;;10.35;7.22;;;25.00;99.90;;;;;;5112888;28;20393;-82
2021/09/09 10:35:16;;;;;;;9.40;6.83;;;24.90;99.90;;;;;;5078818;28;20870;-84
2021/09/09 10:37:42;;;;;;;11.25;8.10;;;25.10;99.90;;;;;;5093108;28;20399;-85
2021/09/09 10:40:08;;;;;;;9.30;7.70;;;25.10;99.90;;;;;;5093313;28;20966;-85
2021/09/09 10:42:40;;;;;;;10.80;7.80;;;25.00;99.90;;;;;;5094974;28;20382;-85
2021/09/09 10:45:32;;;;;;;18.27;7.60;;;24.90;99.90;;;;;;5112995;28;20397;-87
2021/09/09 10:47:57;;;;;;;11.50;7.68;;;25.00;99.90;;;;;;5093313;28;20383;-87
2021/09/09 10:50:24;;;;;;;16.33;8.53;;;25.20;99.90;;;;;;5113859;28;20589;-85
2021/09/09 10:53:07;;;;;;;9.90;7.43;;;25.20;99.90;;;;;;5094246;28;20371;-85
2021/09/09 10:55:36;;;;;;;21.48;9.20;;;25.20;99.90;;;;;;5108180;28;21550;-84
2021/09/09 10:58:20;;;;;;;11.98;7.38;;;25.10;99.90;;;;;;5091592;28;20457;-85
2021/09/09 11:00:52;;;;;;;12.20;7.88;;;25.00;99.90;;;;;;5090513;28;20491;-85
2021/09/09 11:03:39;;;;;;;13.52;8.00;;;24.90;99.90;;;;;;5093189;28;20394;-85
2021/09/09 11:06:08;;;;;;;11.90;7.73;;;24.80;99.90;;;;;;5111023;28;20376;-84
2021/09/09 11:08:34;;;;;;;9.07;8.05;;;24.70;99.90;;;;;;5111254;28;20412;-85
2021/09/09 11:11:00;;;;;;;9.87;8.17;;;24.70;99.90;;;;;;5111997;28;20457;-87
2021/09/09 11:13:27;;;;;;;8.88;7.60;;;24.60;99.90;;;;;;5093562;28;20406;-84
2021/09/09 11:15:53;;;;;;;10.40;8.27;;;24.70;99.90;;;;;;5096466;28;20379;-84
2021/09/09 11:18:26;;;;;;;10.35;8.00;;;24.90;99.90;;;;;;5111966;28;20386;-84
2021/09/09 11:21:06;;;;;;;13.75;7.68;;;25.00;99.90;;;;;;5092692;28;20831;-85
2021/09/09 11:23:34;;;;;;;88.40;14.87;;;25.00;99.90;;;;;;5089434;28;20394;-85
2021/09/09 11:26:16;;;;;;;14.13;8.30;;;24.90;99.90;;;;;;5094847;28;20387;-86
2021/09/09 11:28:43;;;;;;;10.38;8.20;;;24.90;99.90;;;;;;5092582;28;20375;-86
2021/09/09 11:31:18;;;;;;;13.02;8.10;;;25.00;99.90;;;;;;5108965;28;20366;-84
2021/09/09 11:33:54;;;;;;;41.00;10.97;;;25.10;99.90;;;;;;5092227;28;20383;-86
2021/09/09 11:36:23;;;;;;;12.00;8.15;;;24.90;99.90;;;;;;5093184;28;20382;-86
2021/09/09 11:38:50;;;;;;;9.60;7.18;;;24.90;99.90;;;;;;5110100;28;20367;-89
2021/09/09 11:41:19;;;;;;;9.63;8.43;;;25.00;99.90;;;;;;5093942;28;20367;-86
2021/09/09 11:43:52;;;;;;;10.95;7.65;;;25.10;99.90;;;;;;5096318;28;20514;-84
2021/09/09 11:46:32;;;;;;;13.95;8.30;;;25.10;99.90;;;;;;5092926;28;20782;-88
2021/09/09 11:49:05;;;;;;;14.18;8.00;;;25.20;99.90;;;;;;5109628;28;20471;-88
2021/09/09 11:51:40;;;;;;;12.23;7.90;;;25.00;99.90;;;;;;5090634;28;20426;-86
2021/09/09 11:54:14;;;;;;;10.60;7.80;;;25.00;99.90;;;;;;5093003;28;20383;-84
2021/09/09 11:56:40;;;;;;;10.13;8.40;;;24.90;99.90;;;;;;5094720;28;20394;-86
2021/09/09 11:59:10;;;;;;;11.55;8.10;;;25.00;99.90;;;;;;5093941;28;20377;-87
2021/09/09 12:01:38;;;;;;;10.63;7.90;;;25.00;99.90;;;;;;5090451;28;20506;-85
2021/09/09 12:04:05;;;;;;;43.78;11.20;;;25.00;99.90;;;;;;5093623;28;20453;-86
2021/09/09 12:06:33;;;;;;;11.20;8.15;;;25.00;99.90;;;;;;5095341;28;20387;-84
2021/09/09 12:08:59;;;;;;;9.90;8.00;;;24.90;99.90;;;;;;5096876;28;20470;-85
2021/09/09 12:11:25;;;;;;;9.93;8.33;;;24.90;99.90;;;;;;5117178;28;20414;-84
2021/09/09 12:13:51;;;;;;;14.68;8.82;;;25.00;99.90;;;;;;5093034;28;20379;-88
2021/09/09 12:16:33;;;;;;;11.75;8.23;;;25.00;99.90;;;;;;5111713;28;20406;-85
2021/09/09 12:19:06;;;;;;;23.85;9.05;;;25.00;99.90;;;;;;5110152;28;20385;-86
2021/09/09 12:21:34;;;;;;;11.88;8.63;;;25.00;99.90;;;;;;5110468;28;20387;-87
2021/09/09 12:24:04;;;;;;;13.45;8.30;;;25.00;99.90;;;;;;5111359;28;20758;-85
2021/09/09 12:26:31;;;;;;;12.38;8.27;;;24.90;99.90;;;;;;5090707;28;20374;-84
2021/09/09 12:28:57;;;;;;;10.88;8.25;;;25.00;99.90;;;;;;5092759;28;20383;-84
2021/09/09 12:31:31;;;;;;;10.47;7.93;;;25.00;99.90;;;;;;5112688;28;20375;-85